createdAt,value
2022-08-10T00:01:54.837Z,2.90
2022-08-10T00:04:23.596Z,2.78
2022-08-10T00:06:55.276Z,2.78
2022-08-10T00:09:23.673Z,3.05
2022-08-10T00:11:50.380Z,3.13
2022-08-10T00:14:17.235Z,3.17
2022-08-10T00:16:43.859Z,2.97
2022-08-10T00:19:10.572Z,2.90
2022-08-10T00:21:37.563Z,2.90
2022-08-10T00:24:04.460Z,2.90
2022-08-10T00:27:52.727Z,2.72
2022-08-10T00:29:17.712Z,2.95
2022-08-10T00:31:58.098Z,2.90
2022-08-10T00:34:31.289Z,3.00
2022-08-10T00:36:58.265Z,2.92
2022-08-10T00:39:26.037Z,2.70
2022-08-10T00:42:01.862Z,2.63
2022-08-10T00:44:43.345Z,2.60
2022-08-10T00:47:15.366Z,2.83
2022-08-10T00:49:58.034Z,2.95
2022-08-10T00:52:27.479Z,2.80
2022-08-10T00:54:55.059Z,3.15
2022-08-10T00:57:21.843Z,3.03
2022-08-10T00:59:58.034Z,2.60
2022-08-10T01:02:32.150Z,2.90
2022-08-10T01:05:03.018Z,3.10
2022-08-10T01:07:41.612Z,3.03
2022-08-10T01:10:21.905Z,3.08
2022-08-10T01:13:13.370Z,2.70
2022-08-10T01:15:42.861Z,2.80
2022-08-10T01:18:17.680Z,2.88
2022-08-10T01:21:22.000Z,2.53
2022-08-10T01:24:25.039Z,2.92
2022-08-10T01:27:14.718Z,2.95
2022-08-10T01:30:01.914Z,3.03
2022-08-10T01:32:37.455Z,2.70
2022-08-10T01:35:30.147Z,2.88
2022-08-10T01:38:24.609Z,3.28
2022-08-10T01:41:01.692Z,3.38
2022-08-10T01:43:31.718Z,2.97
2022-08-10T01:46:01.749Z,3.10
2022-08-10T01:48:32.947Z,3.17
2022-08-10T01:51:02.478Z,2.75
2022-08-10T01:53:41.268Z,3.03
2022-08-10T01:56:12.219Z,3.20
2022-08-10T01:58:40.219Z,3.28
2022-08-10T02:01:09.835Z,3.00
2022-08-10T02:04:03.067Z,3.53
2022-08-10T02:06:29.593Z,3.30
2022-08-10T02:09:06.024Z,3.08
2022-08-10T02:12:06.546Z,3.05
2022-08-10T02:14:51.630Z,3.10
2022-08-10T02:18:00.499Z,3.25
2022-08-10T02:20:18.256Z,3.03
2022-08-10T02:22:48.983Z,3.10
2022-08-10T02:25:41.001Z,3.15
2022-08-10T02:28:07.583Z,3.20
2022-08-10T02:30:35.184Z,3.10
2022-08-10T02:33:03.144Z,3.30
2022-08-10T02:35:39.922Z,3.40
2022-08-10T02:38:59.626Z,3.00
2022-08-10T02:45:14.973Z,2.90
2022-08-10T02:45:24.326Z,3.08
2022-08-10T02:47:21.985Z,3.58
2022-08-10T02:49:54.969Z,2.97
2022-08-10T02:52:28.110Z,3.22
2022-08-10T02:55:06.189Z,3.10
2022-08-10T02:58:17.367Z,2.67
2022-08-10T03:00:44.487Z,3.22
2022-08-10T03:03:17.778Z,3.42
2022-08-10T03:05:47.646Z,3.05
2022-08-10T03:08:18.836Z,3.25
2022-08-10T03:10:46.383Z,3.17
2022-08-10T03:13:14.974Z,2.92
2022-08-10T03:15:42.623Z,3.20
2022-08-10T03:18:10.219Z,3.55
2022-08-10T03:20:40.751Z,3.30
2022-08-10T03:23:27.989Z,3.20
2022-08-10T03:25:57.496Z,3.10
2022-08-10T03:28:26.946Z,3.20
2022-08-10T03:30:54.708Z,3.17
2022-08-10T03:33:22.748Z,3.28
2022-08-10T03:36:42.357Z,3.10
2022-08-10T03:38:37.551Z,3.42
2022-08-10T03:41:08.480Z,3.10
2022-08-10T03:43:35.770Z,3.28
2022-08-10T03:46:06.254Z,3.08
2022-08-10T03:48:49.375Z,3.13
2022-08-10T03:51:18.857Z,3.30
2022-08-10T03:54:05.038Z,2.90
2022-08-10T03:56:35.407Z,3.40
2022-08-10T03:59:02.613Z,3.40
2022-08-10T04:02:45.178Z,3.35
2022-08-10T04:04:23.631Z,3.08
2022-08-10T04:06:54.855Z,3.13
2022-08-10T04:09:54.731Z,3.10
2022-08-10T04:12:17.372Z,2.90
2022-08-10T04:14:51.098Z,3.40
2022-08-10T04:18:05.115Z,3.40
2022-08-10T04:20:21.930Z,3.00
2022-08-10T04:22:52.117Z,3.28
2022-08-10T04:25:21.044Z,3.25
2022-08-10T04:27:48.642Z,3.20
2022-08-10T04:30:15.612Z,2.88
2022-08-10T04:32:43.720Z,3.10
2022-08-10T04:35:13.722Z,3.08
2022-08-10T04:37:47.318Z,3.00
2022-08-10T04:40:28.588Z,3.22
2022-08-10T04:43:07.353Z,3.20
2022-08-10T04:45:50.566Z,3.33
2022-08-10T04:48:43.016Z,3.08
2022-08-10T04:51:18.932Z,3.17
2022-08-10T04:54:02.845Z,3.10
2022-08-10T04:56:33.539Z,3.47
2022-08-10T04:59:00.754Z,3.28
2022-08-10T05:02:09.873Z,3.00
2022-08-10T05:04:33.958Z,3.45
2022-08-10T05:07:01.480Z,3.20
2022-08-10T05:09:28.071Z,2.90
2022-08-10T05:11:54.747Z,3.03
2022-08-10T05:14:21.326Z,3.20
2022-08-10T05:16:47.941Z,3.25
2022-08-10T05:19:14.558Z,3.20
2022-08-10T05:22:03.956Z,3.10
2022-08-10T05:24:27.793Z,3.05
2022-08-10T05:27:00.632Z,2.95
2022-08-10T05:29:36.406Z,3.13
2022-08-10T05:32:03.341Z,3.20
2022-08-10T05:34:30.296Z,3.35
2022-08-10T05:36:57.995Z,2.95
2022-08-10T05:39:30.238Z,3.13
2022-08-10T05:42:01.282Z,3.05
2022-08-10T05:44:29.162Z,2.97
2022-08-10T05:46:56.127Z,2.80
2022-08-10T05:49:22.735Z,3.00
2022-08-10T05:51:49.411Z,3.05
2022-08-10T05:54:16.132Z,3.10
2022-08-10T05:56:54.061Z,3.13
2022-08-10T06:00:33.384Z,2.92
2022-08-10T06:02:34.963Z,2.90
2022-08-10T06:05:14.696Z,2.70
2022-08-10T06:08:03.891Z,3.10
2022-08-10T06:10:32.972Z,2.90
2022-08-10T06:13:30.737Z,2.90
2022-08-10T06:16:06.004Z,2.83
2022-08-10T06:18:32.941Z,2.72
2022-08-10T06:21:00.942Z,2.90
2022-08-10T06:23:32.623Z,2.92
2022-08-10T06:26:10.956Z,2.90
2022-08-10T06:28:56.058Z,2.80
2022-08-10T06:31:46.994Z,2.90
2022-08-10T06:34:36.746Z,2.67
2022-08-10T06:37:05.143Z,2.58
2022-08-10T06:39:34.493Z,2.92
2022-08-10T06:42:16.800Z,3.13
2022-08-10T06:44:52.673Z,3.10
2022-08-10T06:47:22.800Z,2.80
2022-08-10T06:49:54.234Z,2.88
2022-08-10T06:52:30.614Z,2.55
2022-08-10T06:55:00.678Z,2.88
2022-08-10T06:57:31.067Z,2.88
2022-08-10T06:59:59.247Z,2.80
2022-08-10T07:02:34.320Z,2.60
2022-08-10T07:05:04.078Z,2.85
2022-08-10T07:07:35.034Z,2.63
2022-08-10T07:10:01.743Z,2.67
2022-08-10T07:12:35.273Z,2.50
2022-08-10T07:15:03.087Z,3.13
2022-08-10T07:17:35.908Z,2.70
2022-08-10T07:20:09.416Z,2.50
2022-08-10T07:23:01.785Z,2.75
2022-08-10T07:25:25.997Z,2.42
2022-08-10T07:28:00.587Z,2.45
2022-08-10T07:30:31.558Z,2.60
2022-08-10T07:33:00.429Z,2.60
2022-08-10T07:35:33.216Z,2.78
2022-08-10T07:38:06.525Z,2.40
2022-08-10T07:40:33.900Z,2.78
2022-08-10T07:43:02.217Z,2.33
2022-08-10T07:45:33.456Z,2.60
2022-08-10T07:48:07.441Z,2.50
2022-08-10T07:50:38.003Z,2.80
2022-08-10T07:53:10.133Z,2.78
2022-08-10T07:56:03.407Z,2.60
2022-08-10T07:58:36.839Z,2.20
2022-08-10T08:01:03.609Z,2.67
2022-08-10T08:03:32.625Z,2.50
2022-08-10T08:06:05.078Z,2.78
2022-08-10T08:08:40.536Z,2.50
2022-08-10T08:11:08.751Z,2.60
2022-08-10T08:13:37.891Z,2.40
2022-08-10T08:16:19.154Z,2.25
2022-08-10T08:18:58.105Z,2.58
2022-08-10T08:24:06.969Z,2.22
2022-08-10T08:24:31.387Z,2.35
2022-08-10T08:27:02.283Z,2.40
2022-08-10T08:29:31.489Z,2.45
2022-08-10T08:32:01.820Z,2.40
2022-08-10T08:34:32.501Z,2.53
2022-08-10T08:37:01.131Z,2.40
2022-08-10T08:39:28.780Z,2.20
2022-08-10T08:42:14.656Z,2.47
2022-08-10T08:45:05.838Z,2.50
2022-08-10T08:48:04.397Z,2.53
2022-08-10T08:50:30.162Z,2.05
2022-08-10T08:53:22.558Z,2.40
2022-08-10T08:56:05.962Z,2.30
2022-08-10T08:59:05.719Z,2.50
2022-08-10T09:01:50.945Z,2.17
2022-08-10T09:04:47.279Z,2.20
2022-08-10T09:07:39.369Z,2.60
2022-08-10T09:10:51.598Z,2.35
2022-08-10T09:13:34.539Z,2.40
2022-08-10T09:16:34.995Z,2.35
2022-08-10T09:19:36.374Z,2.35
2022-08-10T09:22:38.013Z,2.20
2022-08-10T09:25:18.832Z,2.30
2022-08-10T09:27:49.600Z,2.63
2022-08-10T09:30:28.431Z,2.35
2022-08-10T09:36:24.604Z,2.20
2022-08-10T09:36:32.996Z,2.50
2022-08-10T09:40:56.379Z,2.20
2022-08-10T09:42:24.055Z,2.00
2022-08-10T09:45:03.221Z,2.30
2022-08-10T09:47:58.869Z,2.08
2022-08-10T09:51:05.364Z,1.98
2022-08-10T09:53:44.261Z,1.90
2022-08-10T09:56:30.564Z,2.20
2022-08-10T09:59:27.175Z,2.10
2022-08-10T10:02:18.111Z,1.90
2022-08-10T10:05:02.052Z,2.10
2022-08-10T10:07:29.881Z,2.13
2022-08-10T10:10:04.917Z,2.45
2022-08-10T10:12:50.466Z,2.30
2022-08-10T10:15:50.964Z,1.90
2022-08-10T10:18:28.576Z,1.95
2022-08-10T10:21:11.499Z,1.75
2022-08-10T10:24:40.787Z,1.90
2022-08-10T10:27:24.450Z,2.05
2022-08-10T10:30:11.488Z,1.90
2022-08-10T10:32:59.482Z,1.65
2022-08-10T10:35:36.670Z,1.67
2022-08-10T10:38:06.578Z,1.98
2022-08-10T10:40:47.067Z,1.90
2022-08-10T10:43:31.787Z,1.63
2022-08-10T10:46:23.586Z,2.05
2022-08-10T10:49:19.335Z,1.73
2022-08-10T10:52:02.916Z,1.90
2022-08-10T10:54:59.842Z,2.05
2022-08-10T10:57:59.318Z,1.90
2022-08-10T11:00:27.815Z,2.05
2022-08-10T11:03:01.556Z,1.70
2022-08-10T11:05:40.567Z,1.83
2022-08-10T11:08:29.142Z,1.77
2022-08-10T11:11:02.798Z,1.90
2022-08-10T11:14:27.428Z,1.80
2022-08-10T11:16:57.241Z,1.60
2022-08-10T11:20:02.782Z,2.00
2022-08-10T11:22:46.238Z,2.20
2022-08-10T11:25:18.727Z,1.70
2022-08-10T11:27:56.694Z,1.90
2022-08-10T11:30:33.932Z,2.13
2022-08-10T11:33:30.837Z,2.03
2022-08-10T11:36:08.875Z,1.80
2022-08-10T11:39:13.965Z,1.98
2022-08-10T11:42:08.022Z,2.30
2022-08-10T11:45:03.016Z,2.03
2022-08-10T11:47:32.685Z,1.90
2022-08-10T11:50:11.277Z,2.13
2022-08-10T11:52:50.305Z,2.45
2022-08-10T11:55:23.316Z,4.68
2022-08-10T11:57:55.762Z,2.08
2022-08-10T12:00:24.918Z,2.08
2022-08-10T12:02:59.584Z,1.90
2022-08-10T12:05:51.638Z,1.90
2022-08-10T12:10:05.551Z,1.75
2022-08-10T12:11:09.023Z,1.90
2022-08-10T12:14:10.645Z,2.25
2022-08-10T12:16:40.603Z,2.00
2022-08-10T12:19:58.718Z,1.80
2022-08-10T12:22:33.104Z,1.98
2022-08-10T12:25:03.917Z,2.08
2022-08-10T12:27:52.067Z,3.22
2022-08-10T12:30:26.539Z,1.83
2022-08-10T12:33:07.865Z,1.98
2022-08-10T12:35:56.070Z,2.03
2022-08-10T12:38:39.387Z,1.63
2022-08-10T12:41:43.591Z,2.45
2022-08-10T12:44:42.355Z,1.90
2022-08-10T12:47:34.716Z,1.90
2022-08-10T12:50:33.521Z,1.50
2022-08-10T12:53:14.552Z,1.90
2022-08-10T12:55:42.345Z,1.50
2022-08-10T12:58:59.903Z,1.70
2022-08-10T13:01:21.361Z,1.58
2022-08-10T13:04:23.349Z,1.65
2022-08-10T13:06:43.514Z,1.70
2022-08-10T13:09:10.203Z,1.50
2022-08-10T13:12:35.494Z,2.03
2022-08-10T13:15:45.158Z,1.75
2022-08-10T13:18:02.606Z,1.85
2022-08-10T13:20:37.106Z,1.80
2022-08-10T13:23:13.151Z,1.50
2022-08-10T13:25:43.105Z,1.45
2022-08-10T13:28:35.380Z,1.42
2022-08-10T13:31:05.468Z,2.00
2022-08-10T13:34:40.943Z,1.92
2022-08-10T13:36:28.882Z,1.80
2022-08-10T13:38:57.159Z,1.90
2022-08-10T13:41:34.025Z,1.90
2022-08-10T13:44:01.757Z,1.88
2022-08-10T13:46:28.546Z,1.65
2022-08-10T13:48:58.032Z,1.83
2022-08-10T13:51:53.702Z,1.70
2022-08-10T13:54:18.720Z,2.10
2022-08-10T13:56:47.556Z,1.95
2022-08-10T13:59:16.341Z,2.20
2022-08-10T14:01:50.235Z,1.90
2022-08-10T14:04:19.581Z,1.90
2022-08-10T14:06:54.443Z,2.30
2022-08-10T14:09:28.360Z,2.00
2022-08-10T14:11:56.529Z,2.00
2022-08-10T14:14:25.644Z,1.80
2022-08-10T14:16:53.914Z,2.10
2022-08-10T14:19:27.705Z,1.83
2022-08-10T14:21:54.598Z,2.35
2022-08-10T14:24:27.718Z,1.95
2022-08-10T14:27:10.074Z,2.40
2022-08-10T14:29:56.274Z,2.20
2022-08-10T14:32:27.360Z,1.80
2022-08-10T14:36:22.200Z,2.10
2022-08-10T14:37:56.027Z,2.17
2022-08-10T14:40:26.805Z,2.22
2022-08-10T14:43:01.499Z,2.50
2022-08-10T14:45:31.747Z,2.13
2022-08-10T14:48:11.808Z,1.95
2022-08-10T14:50:49.472Z,2.20
2022-08-10T14:53:26.901Z,2.10
2022-08-10T14:56:00.891Z,2.28
2022-08-10T14:58:38.540Z,2.20
2022-08-10T15:01:07.878Z,2.03
2022-08-10T15:04:01.069Z,1.98
2022-08-10T15:06:53.975Z,2.15
2022-08-10T15:09:23.357Z,1.92
2022-08-10T15:12:15.857Z,2.17
2022-08-10T15:14:58.462Z,2.10
2022-08-10T15:17:34.823Z,1.80
2022-08-10T15:20:14.876Z,2.10
2022-08-10T15:22:49.965Z,2.40
2022-08-10T15:25:24.437Z,2.00
2022-08-10T15:28:05.071Z,2.08
2022-08-10T15:31:03.810Z,2.00
2022-08-10T15:34:04.370Z,1.92
2022-08-10T15:37:02.496Z,2.10
2022-08-10T15:40:22.508Z,2.10
2022-08-10T15:43:00.174Z,1.70
2022-08-10T15:45:27.479Z,1.75
2022-08-10T15:48:03.385Z,1.80
2022-08-10T15:50:50.849Z,1.90
2022-08-10T15:53:50.759Z,1.95
2022-08-10T15:56:43.571Z,1.67
2022-08-10T15:59:29.788Z,1.70
2022-08-10T16:02:15.006Z,1.80
2022-08-10T16:04:57.202Z,1.60
2022-08-10T16:07:50.118Z,1.77
2022-08-10T16:10:25.534Z,1.60
2022-08-10T16:13:50.974Z,2.10
2022-08-10T16:16:05.408Z,1.98
2022-08-10T16:18:37.450Z,1.88
2022-08-10T16:21:17.322Z,1.67
2022-08-10T16:24:14.300Z,1.85
2022-08-10T16:26:46.700Z,2.08
2022-08-10T16:29:18.287Z,1.88
2022-08-10T16:31:54.951Z,1.85
2022-08-10T16:34:23.746Z,1.60
2022-08-10T16:36:59.605Z,2.00
2022-08-10T16:39:57.761Z,1.70
2022-08-10T16:42:24.723Z,1.80
2022-08-10T16:45:11.762Z,1.92
2022-08-10T16:47:46.899Z,1.70
2022-08-10T16:50:17.109Z,2.08
2022-08-10T16:52:44.873Z,1.90
2022-08-10T16:55:49.478Z,1.90
2022-08-10T16:58:14.034Z,2.05
2022-08-10T17:00:42.883Z,2.00
2022-08-10T17:03:22.514Z,2.00
2022-08-10T17:06:11.863Z,2.10
2022-08-10T17:08:48.536Z,2.05
2022-08-10T17:11:18.438Z,2.00
2022-08-10T17:13:45.505Z,1.90
2022-08-10T17:16:14.558Z,2.00
2022-08-10T17:18:45.127Z,2.03
2022-08-10T17:21:28.306Z,2.10
2022-08-10T17:23:57.992Z,2.15
2022-08-10T17:26:36.094Z,1.95
2022-08-10T17:29:53.279Z,2.10
2022-08-10T17:32:05.459Z,2.22
2022-08-10T17:34:40.096Z,2.13
2022-08-10T17:37:16.112Z,2.05
2022-08-10T17:39:47.909Z,1.95
2022-08-10T17:42:21.852Z,2.05
2022-08-10T17:44:52.089Z,2.13
2022-08-10T17:47:20.892Z,2.10
2022-08-10T17:49:49.667Z,2.17
2022-08-10T17:52:21.698Z,2.30
2022-08-10T17:54:55.070Z,2.10
2022-08-10T17:57:23.938Z,2.15
2022-08-10T17:59:52.779Z,2.05
2022-08-10T18:02:27.245Z,2.30
2022-08-10T18:04:57.255Z,1.90
2022-08-10T18:07:33.565Z,1.90
2022-08-10T18:10:01.656Z,2.08
2022-08-10T18:12:38.759Z,2.47
2022-08-10T18:15:12.253Z,2.13
2022-08-10T18:17:59.413Z,2.20
2022-08-10T18:20:34.397Z,2.03
2022-08-10T18:23:02.024Z,2.40
2022-08-10T18:25:35.535Z,2.20
2022-08-10T18:28:05.944Z,2.05
2022-08-10T18:30:45.151Z,2.00
2022-08-10T18:33:14.162Z,2.10
2022-08-10T18:35:43.756Z,2.30
2022-08-10T18:38:11.633Z,2.20
2022-08-10T18:40:44.357Z,2.05
2022-08-10T18:44:06.977Z,2.20
2022-08-10T18:46:06.419Z,2.10
2022-08-10T18:48:49.183Z,2.10
2022-08-10T18:51:24.034Z,2.20
2022-08-10T18:53:56.891Z,2.20
2022-08-10T18:56:29.314Z,2.00
2022-08-10T18:59:17.608Z,2.20
2022-08-10T19:01:53.008Z,2.20
2022-08-10T19:04:43.525Z,2.30
2022-08-10T19:07:22.071Z,2.10
2022-08-10T19:10:03.605Z,2.45
2022-08-10T19:12:51.678Z,2.35
2022-08-10T19:15:44.819Z,2.33
2022-08-10T19:18:12.315Z,2.13
2022-08-10T19:20:55.519Z,2.50
2022-08-10T19:23:36.158Z,2.30
2022-08-10T19:26:44.245Z,2.55
2022-08-10T19:30:09.161Z,2.47
2022-08-10T19:32:51.755Z,2.13
2022-08-10T19:36:03.803Z,2.40
2022-08-10T19:38:53.516Z,2.20
2022-08-10T19:41:40.372Z,2.10
2022-08-10T19:44:48.395Z,2.08
2022-08-10T19:47:45.081Z,2.22
2022-08-10T19:50:19.302Z,2.33
2022-08-10T19:53:03.971Z,2.40
2022-08-10T19:55:36.679Z,2.33
2022-08-10T19:58:15.295Z,2.30
2022-08-10T20:00:56.192Z,2.20
2022-08-10T20:03:29.062Z,2.30
2022-08-10T20:06:18.371Z,1.88
2022-08-10T20:09:13.754Z,2.00
2022-08-10T20:12:07.756Z,2.17
2022-08-10T20:14:58.882Z,2.15
2022-08-10T20:17:51.354Z,2.30
2022-08-10T20:20:31.583Z,2.20
2022-08-10T20:23:19.048Z,2.35
2022-08-10T20:25:55.858Z,2.10
2022-08-10T20:29:16.213Z,2.20
2022-08-10T20:31:54.018Z,2.22
2022-08-10T20:34:23.066Z,2.17
2022-08-10T20:37:06.719Z,2.30
2022-08-10T20:40:12.176Z,2.13
2022-08-10T20:43:10.571Z,2.13
2022-08-10T20:46:06.857Z,2.10
2022-08-10T20:48:36.741Z,2.33
2022-08-10T20:51:08.154Z,2.45
2022-08-10T20:53:45.172Z,2.10
2022-08-10T20:56:21.493Z,2.30
2022-08-10T20:59:00.115Z,2.20
2022-08-10T21:02:06.599Z,2.22
2022-08-10T21:04:53.731Z,2.17
2022-08-10T21:08:01.540Z,2.15
2022-08-10T21:10:48.482Z,2.20
2022-08-10T21:13:45.187Z,2.45
2022-08-10T21:16:36.547Z,2.30
2022-08-10T21:19:19.839Z,2.22
2022-08-10T21:21:56.987Z,2.42
2022-08-10T21:24:34.916Z,2.10
2022-08-10T21:27:35.728Z,2.40
2022-08-10T21:30:25.113Z,2.30
2022-08-10T21:33:00.185Z,2.20
2022-08-10T21:35:49.633Z,2.20
2022-08-10T21:38:37.862Z,2.30
2022-08-10T21:41:57.794Z,2.30
2022-08-10T21:45:14.009Z,2.30
2022-08-10T21:48:16.873Z,2.20
2022-08-10T21:51:24.657Z,2.47
2022-08-10T21:54:47.362Z,2.30
2022-08-10T21:57:58.493Z,2.25
2022-08-10T22:00:43.859Z,2.63
2022-08-10T22:03:39.641Z,2.30
2022-08-10T22:06:28.128Z,2.33
2022-08-10T22:09:27.136Z,2.35
2022-08-10T22:12:25.114Z,2.22
2022-08-10T22:16:05.609Z,2.60
2022-08-10T22:18:35.903Z,2.35
2022-08-10T22:22:07.746Z,2.40
2022-08-10T22:25:24.151Z,2.40
2022-08-10T22:28:17.777Z,2.38
2022-08-10T22:31:33.437Z,2.47
2022-08-10T22:35:03.836Z,2.30
2022-08-10T22:38:11.199Z,2.50
2022-08-10T22:41:02.442Z,2.60
2022-08-10T22:43:51.594Z,2.30
2022-08-10T22:46:40.490Z,2.53
2022-08-10T22:49:07.658Z,2.80
2022-08-10T22:51:46.691Z,2.60
2022-08-10T22:54:57.135Z,2.10
2022-08-10T22:57:42.199Z,2.50
2022-08-10T23:00:17.624Z,2.60
2022-08-10T23:02:51.981Z,2.47
2022-08-10T23:05:30.308Z,2.38
2022-08-10T23:08:08.017Z,2.30
2022-08-10T23:10:41.621Z,2.40
2022-08-10T23:13:35.615Z,2.30
2022-08-10T23:16:45.875Z,2.78
2022-08-10T23:19:29.845Z,2.20
2022-08-10T23:22:07.611Z,2.40
2022-08-10T23:24:39.672Z,2.60
2022-08-10T23:27:13.132Z,2.30
2022-08-10T23:30:10.632Z,2.40
2022-08-10T23:32:42.357Z,2.90
2022-08-10T23:36:30.367Z,2.72
2022-08-10T23:38:10.258Z,2.30
2022-08-10T23:40:38.102Z,2.35
2022-08-10T23:43:06.815Z,2.65
2022-08-10T23:45:53.345Z,2.50
2022-08-10T23:48:25.959Z,2.55
2022-08-10T23:50:58.274Z,2.67
2022-08-10T23:53:35.342Z,2.47
2022-08-10T23:56:08.112Z,2.40
2022-08-10T23:58:39.692Z,2.55
